TAP033 LGTS-EPKK
Flight info
| Callsign | TAP033 |
|---|---|
| Flight time | 1h 39m |
| Altitude | 38000 |
| Route | FSK UN128 RUGAS DCT SIN DCT RAXAD DCT PARAK DCT LITKU DCT REDSI DCT MEBAN |
| Aircraft | A321/M-SDE3FGHIRWY/LB1 |
Departure
| Time | 2026-05-06 13:38 |
|---|---|
| Airport | Thessaloniki Macedonia International Airport (LGTS) |
Arrival
| Time | 2026-05-06 15:17 |
|---|---|
| Airport | Kraków John Paul II International Airport (EPKK) |
| Time | Latitude | Longitude | Altitude | Speed | Heading |
|---|---|---|---|---|---|
| 2026-05-06 13:28 | 40.52335 | 22.97538 | 25 ft | 0 kts | 45° |
| 2026-05-06 13:30 | 40.52331 | 22.97533 | 25 ft | 4 kts | 45° |
| 2026-05-06 13:30 | 40.52316 | 22.97513 | 49 ft | 3 kts | 45° |
| 2026-05-06 13:30 | 40.52297 | 22.97489 | 24 ft | 4 kts | 39° |
| 2026-05-06 13:30 | 40.52275 | 22.97469 | 31 ft | 4 kts | 22° |
| 2026-05-06 13:31 | 40.52253 | 22.97463 | 30 ft | 4 kts | 327° |
| 2026-05-06 13:31 | 40.52236 | 22.97485 | 30 ft | 3 kts | 314° |
| 2026-05-06 13:31 | 40.52233 | 22.97489 | 30 ft | 0 kts | 314° |
| 2026-05-06 13:33 | 40.52233 | 22.97488 | 30 ft | 1 kts | 314° |
| 2026-05-06 13:34 | 40.52258 | 22.97454 | 30 ft | 7 kts | 314° |
| 2026-05-06 13:34 | 40.52301 | 22.97394 | 28 ft | 12 kts | 313° |
| 2026-05-06 13:34 | 40.52358 | 22.97315 | 28 ft | 11 kts | 313° |
| 2026-05-06 13:34 | 40.52380 | 22.97228 | 27 ft | 10 kts | 265° |
| 2026-05-06 13:35 | 40.52427 | 22.97136 | 27 ft | 20 kts | 340° |
| 2026-05-06 13:35 | 40.52568 | 22.97089 | 30 ft | 21 kts | 346° |
| 2026-05-06 13:35 | 40.52703 | 22.97047 | 29 ft | 19 kts | 346° |
| 2026-05-06 13:35 | 40.52835 | 22.97005 | 26 ft | 20 kts | 346° |
| 2026-05-06 13:36 | 40.52969 | 22.96962 | 27 ft | 19 kts | 346° |
| 2026-05-06 13:36 | 40.53068 | 22.96899 | 30 ft | 12 kts | 288° |
| 2026-05-06 13:36 | 40.53036 | 22.96808 | 27 ft | 11 kts | 229° |
| 2026-05-06 13:36 | 40.52970 | 22.96782 | 26 ft | 10 kts | 169° |
| 2026-05-06 13:37 | 40.52854 | 22.96818 | 27 ft | 29 kts | 166° |
| 2026-05-06 13:37 | 40.52494 | 22.96931 | 30 ft | 85 kts | 167° |
| 2026-05-06 13:37 | 40.51728 | 22.97176 | 27 ft | 139 kts | 166° |
| 2026-05-06 13:37 | 40.50747 | 22.97505 | 448 ft | 146 kts | 169° |
| 2026-05-06 13:38 | 40.49746 | 22.97817 | 994 ft | 151 kts | 169° |
| 2026-05-06 13:38 | 40.48681 | 22.98067 | 1537 ft | 163 kts | 168° |
| 2026-05-06 13:38 | 40.47517 | 22.98365 | 1965 ft | 176 kts | 167° |
| 2026-05-06 13:38 | 40.46285 | 22.98745 | 2393 ft | 192 kts | 158° |
| 2026-05-06 13:39 | 40.45257 | 22.99762 | 3215 ft | 182 kts | 121° |
| 2026-05-06 13:39 | 40.44999 | 23.01353 | 3976 ft | 182 kts | 91° |
| 2026-05-06 13:39 | 40.45300 | 23.03041 | 4280 ft | 204 kts | 60° |
| 2026-05-06 13:39 | 40.46447 | 23.04260 | 4479 ft | 228 kts | 18° |
| 2026-05-06 13:40 | 40.48104 | 23.04453 | 4666 ft | 253 kts | 359° |
| 2026-05-06 13:40 | 40.49946 | 23.04336 | 5060 ft | 273 kts | 355° |
| 2026-05-06 13:40 | 40.51861 | 23.04135 | 5832 ft | 279 kts | 354° |
| 2026-05-06 13:40 | 40.53804 | 23.03919 | 6649 ft | 282 kts | 354° |
| 2026-05-06 13:41 | 40.55766 | 23.03710 | 7468 ft | 284 kts | 354° |
| 2026-05-06 13:41 | 40.57748 | 23.03513 | 8302 ft | 286 kts | 354° |
| 2026-05-06 13:41 | 40.59740 | 23.03331 | 9125 ft | 288 kts | 354° |
| 2026-05-06 13:41 | 40.61753 | 23.03159 | 9968 ft | 291 kts | 354° |
| 2026-05-06 13:42 | 40.63812 | 23.02988 | 10431 ft | 306 kts | 354° |
| 2026-05-06 13:42 | 40.66018 | 23.02803 | 10649 ft | 327 kts | 354° |
| 2026-05-06 13:42 | 40.68320 | 23.02612 | 11206 ft | 334 kts | 354° |
| 2026-05-06 13:42 | 40.70619 | 23.02425 | 11915 ft | 336 kts | 354° |
| 2026-05-06 13:43 | 40.72993 | 23.02229 | 12678 ft | 338 kts | 355° |
| 2026-05-06 13:43 | 40.75313 | 23.02012 | 13406 ft | 340 kts | 352° |
| 2026-05-06 13:43 | 40.77593 | 23.01201 | 14067 ft | 341 kts | 338° |
| 2026-05-06 13:43 | 40.79820 | 23.00091 | 14703 ft | 343 kts | 338° |
| 2026-05-06 13:44 | 40.82058 | 22.98956 | 15320 ft | 346 kts | 338° |
| 2026-05-06 13:44 | 40.84311 | 22.97805 | 15947 ft | 348 kts | 338° |
| 2026-05-06 13:44 | 40.86581 | 22.96645 | 16554 ft | 351 kts | 338° |
| 2026-05-06 13:44 | 40.88869 | 22.95480 | 17154 ft | 354 kts | 338° |
| 2026-05-06 13:45 | 40.91177 | 22.94307 | 17755 ft | 356 kts | 338° |
| 2026-05-06 13:45 | 40.95831 | 22.91932 | 18828 ft | 361 kts | 337° |
| 2026-05-06 13:45 | 40.98180 | 22.90732 | 19338 ft | 363 kts | 337° |
| 2026-05-06 13:46 | 41.00541 | 22.89527 | 19836 ft | 365 kts | 337° |
| 2026-05-06 13:46 | 41.02108 | 22.88726 | 20165 ft | 366 kts | 337° |
| 2026-05-06 13:46 | 41.04489 | 22.87511 | 20632 ft | 368 kts | 337° |
| 2026-05-06 13:46 | 41.06882 | 22.86295 | 21084 ft | 369 kts | 337° |
| 2026-05-06 13:47 | 41.09292 | 22.85085 | 21534 ft | 371 kts | 337° |
| 2026-05-06 13:47 | 41.12508 | 22.83482 | 22123 ft | 374 kts | 337° |
| 2026-05-06 13:47 | 41.14948 | 22.82268 | 22570 ft | 376 kts | 337° |
| 2026-05-06 13:47 | 41.17400 | 22.81049 | 22992 ft | 377 kts | 337° |
| 2026-05-06 13:48 | 41.19864 | 22.79822 | 23431 ft | 379 kts | 337° |
| 2026-05-06 13:48 | 41.21536 | 22.78986 | 23706 ft | 381 kts | 337° |
| 2026-05-06 13:48 | 41.23988 | 22.77760 | 24047 ft | 383 kts | 337° |
| 2026-05-06 13:48 | 41.26484 | 22.76511 | 24408 ft | 385 kts | 336° |
| 2026-05-06 13:49 | 41.28992 | 22.75251 | 24782 ft | 387 kts | 336° |
| 2026-05-06 13:49 | 41.31517 | 22.73981 | 25162 ft | 388 kts | 336° |
| 2026-05-06 13:49 | 41.34051 | 22.72707 | 25521 ft | 391 kts | 336° |
| 2026-05-06 13:49 | 41.36601 | 22.71425 | 25881 ft | 393 kts | 336° |
| 2026-05-06 13:50 | 41.39166 | 22.70132 | 26231 ft | 395 kts | 336° |
| 2026-05-06 13:50 | 41.41745 | 22.68829 | 26590 ft | 398 kts | 336° |
| 2026-05-06 13:50 | 41.44340 | 22.67518 | 26920 ft | 400 kts | 336° |
| 2026-05-06 13:50 | 41.46949 | 22.66202 | 27262 ft | 402 kts | 336° |
| 2026-05-06 13:51 | 41.49572 | 22.64882 | 27594 ft | 404 kts | 336° |
| 2026-05-06 13:51 | 41.52207 | 22.63553 | 27916 ft | 406 kts | 336° |
| 2026-05-06 13:51 | 41.54820 | 22.62233 | 28243 ft | 408 kts | 336° |
| 2026-05-06 13:51 | 41.57481 | 22.60886 | 28568 ft | 410 kts | 336° |
| 2026-05-06 13:52 | 41.60156 | 22.59530 | 28897 ft | 412 kts | 336° |
| 2026-05-06 13:52 | 41.62843 | 22.58167 | 29222 ft | 414 kts | 336° |
| 2026-05-06 13:52 | 41.65545 | 22.56797 | 29533 ft | 416 kts | 336° |
| 2026-05-06 13:52 | 41.68259 | 22.55417 | 29841 ft | 418 kts | 336° |
| 2026-05-06 13:53 | 41.70985 | 22.54026 | 30136 ft | 420 kts | 336° |
| 2026-05-06 13:53 | 41.73720 | 22.52628 | 30401 ft | 422 kts | 336° |
| 2026-05-06 13:53 | 41.76467 | 22.51222 | 30649 ft | 424 kts | 336° |
| 2026-05-06 13:53 | 41.79228 | 22.49810 | 30897 ft | 425 kts | 336° |
| 2026-05-06 13:54 | 41.81961 | 22.48412 | 31134 ft | 427 kts | 336° |
| 2026-05-06 13:54 | 41.84740 | 22.46993 | 31372 ft | 428 kts | 336° |
| 2026-05-06 13:54 | 41.87520 | 22.45577 | 31705 ft | 427 kts | 336° |
| 2026-05-06 13:54 | 41.90293 | 22.44165 | 32035 ft | 426 kts | 336° |
| 2026-05-06 13:55 | 41.93059 | 22.42749 | 32347 ft | 425 kts | 336° |
| 2026-05-06 13:55 | 41.95821 | 22.41329 | 32658 ft | 425 kts | 336° |
| 2026-05-06 13:55 | 41.98577 | 22.39912 | 32990 ft | 424 kts | 336° |
| 2026-05-06 13:55 | 42.01333 | 22.38495 | 33326 ft | 423 kts | 336° |
| 2026-05-06 13:56 | 42.04081 | 22.37084 | 33664 ft | 423 kts | 336° |
| 2026-05-06 13:56 | 42.06825 | 22.35676 | 33975 ft | 422 kts | 336° |
| 2026-05-06 13:56 | 42.09564 | 22.34269 | 34246 ft | 421 kts | 336° |
| 2026-05-06 13:56 | 42.12305 | 22.32857 | 34512 ft | 421 kts | 336° |
| 2026-05-06 13:57 | 42.15002 | 22.31462 | 34769 ft | 421 kts | 336° |
| 2026-05-06 13:57 | 42.17732 | 22.30048 | 35037 ft | 420 kts | 336° |
| 2026-05-06 13:57 | 42.20462 | 22.28634 | 35304 ft | 420 kts | 336° |
| 2026-05-06 13:57 | 42.23187 | 22.27226 | 35550 ft | 419 kts | 336° |
| 2026-05-06 13:58 | 42.25911 | 22.25815 | 35789 ft | 419 kts | 336° |
| 2026-05-06 13:58 | 42.28631 | 22.24403 | 35978 ft | 420 kts | 336° |
| 2026-05-06 13:58 | 42.34039 | 22.21589 | 36035 ft | 413 kts | 336° |
| 2026-05-06 13:59 | 42.39398 | 22.18811 | 36030 ft | 412 kts | 336° |
| 2026-05-06 13:59 | 42.44713 | 22.16057 | 36032 ft | 412 kts | 336° |
| 2026-05-06 14:00 | 42.50064 | 22.13271 | 36025 ft | 412 kts | 336° |
| 2026-05-06 14:00 | 42.55420 | 22.10478 | 36030 ft | 413 kts | 336° |
| 2026-05-06 14:01 | 42.60785 | 22.07688 | 36030 ft | 413 kts | 336° |
| 2026-05-06 14:01 | 42.66150 | 22.04878 | 36025 ft | 413 kts | 336° |
| 2026-05-06 14:02 | 42.71506 | 22.02069 | 36020 ft | 413 kts | 336° |
| 2026-05-06 14:02 | 42.76871 | 21.99251 | 36012 ft | 413 kts | 336° |
| 2026-05-06 14:03 | 42.82198 | 21.96443 | 36006 ft | 414 kts | 336° |
| 2026-05-06 14:03 | 42.87563 | 21.93623 | 36003 ft | 414 kts | 336° |
| 2026-05-06 14:04 | 42.92928 | 21.90802 | 35999 ft | 414 kts | 336° |
| 2026-05-06 14:04 | 42.98311 | 21.87962 | 35995 ft | 414 kts | 336° |
| 2026-05-06 14:05 | 43.03675 | 21.85116 | 35992 ft | 414 kts | 335° |
| 2026-05-06 14:05 | 43.09045 | 21.82259 | 35991 ft | 414 kts | 335° |
| 2026-05-06 14:06 | 43.14420 | 21.79412 | 35984 ft | 414 kts | 335° |
| 2026-05-06 14:06 | 43.19753 | 21.76564 | 35982 ft | 414 kts | 335° |
| 2026-05-06 14:07 | 43.25129 | 21.73688 | 35984 ft | 415 kts | 335° |
| 2026-05-06 14:07 | 43.30506 | 21.70809 | 35984 ft | 415 kts | 335° |
| 2026-05-06 14:08 | 43.35883 | 21.67926 | 35982 ft | 415 kts | 335° |
| 2026-05-06 14:08 | 43.41259 | 21.65036 | 35981 ft | 415 kts | 335° |
| 2026-05-06 14:09 | 43.46640 | 21.62147 | 35977 ft | 416 kts | 335° |
| 2026-05-06 14:09 | 43.52021 | 21.59250 | 35975 ft | 416 kts | 335° |
| 2026-05-06 14:10 | 43.57412 | 21.56337 | 35973 ft | 416 kts | 335° |
| 2026-05-06 14:10 | 43.62765 | 21.53442 | 35974 ft | 416 kts | 335° |
| 2026-05-06 14:11 | 43.68147 | 21.50523 | 35976 ft | 416 kts | 335° |
| 2026-05-06 14:11 | 43.73532 | 21.47587 | 35975 ft | 416 kts | 335° |
| 2026-05-06 14:12 | 43.78918 | 21.44655 | 35959 ft | 416 kts | 335° |
| 2026-05-06 14:12 | 43.84312 | 21.41721 | 35971 ft | 416 kts | 335° |
| 2026-05-06 14:13 | 43.89699 | 21.38781 | 35968 ft | 416 kts | 335° |
| 2026-05-06 14:13 | 43.95052 | 21.35856 | 35975 ft | 416 kts | 335° |
| 2026-05-06 14:14 | 44.00439 | 21.32901 | 35963 ft | 416 kts | 335° |
| 2026-05-06 14:14 | 44.05826 | 21.29926 | 35981 ft | 417 kts | 335° |
| 2026-05-06 14:15 | 44.11215 | 21.26959 | 35974 ft | 417 kts | 335° |
| 2026-05-06 14:15 | 44.16609 | 21.23996 | 35961 ft | 416 kts | 335° |
| 2026-05-06 14:16 | 44.21996 | 21.21014 | 35965 ft | 417 kts | 334° |
| 2026-05-06 14:16 | 44.27345 | 21.18041 | 35968 ft | 417 kts | 334° |
| 2026-05-06 14:17 | 44.32735 | 21.15052 | 35958 ft | 417 kts | 335° |
| 2026-05-06 14:17 | 44.38128 | 21.12064 | 35962 ft | 417 kts | 334° |
| 2026-05-06 14:18 | 44.43519 | 21.09068 | 35953 ft | 417 kts | 334° |
| 2026-05-06 14:18 | 44.48912 | 21.06051 | 35952 ft | 417 kts | 334° |
| 2026-05-06 14:19 | 44.54301 | 21.03035 | 35955 ft | 417 kts | 334° |
| 2026-05-06 14:19 | 44.59696 | 21.00012 | 35962 ft | 417 kts | 334° |
| 2026-05-06 14:20 | 44.65081 | 20.96983 | 35956 ft | 417 kts | 334° |
| 2026-05-06 14:20 | 44.70470 | 20.93948 | 35956 ft | 417 kts | 334° |
| 2026-05-06 14:21 | 44.75824 | 20.90934 | 35957 ft | 417 kts | 334° |
| 2026-05-06 14:21 | 44.81213 | 20.87894 | 35961 ft | 417 kts | 334° |
| 2026-05-06 14:22 | 44.86598 | 20.84840 | 35959 ft | 417 kts | 334° |
| 2026-05-06 14:22 | 44.91985 | 20.81786 | 35964 ft | 417 kts | 334° |
| 2026-05-06 14:23 | 44.97367 | 20.78723 | 35963 ft | 417 kts | 334° |
| 2026-05-06 14:23 | 45.02748 | 20.75653 | 35961 ft | 417 kts | 334° |
| 2026-05-06 14:24 | 45.08129 | 20.72587 | 35959 ft | 417 kts | 333° |
| 2026-05-06 14:24 | 45.13470 | 20.69529 | 35959 ft | 417 kts | 333° |
| 2026-05-06 14:25 | 45.18849 | 20.66446 | 35964 ft | 417 kts | 333° |
| 2026-05-06 14:25 | 45.24226 | 20.63364 | 35964 ft | 417 kts | 333° |
| 2026-05-06 14:26 | 45.29595 | 20.60269 | 35961 ft | 416 kts | 333° |
| 2026-05-06 14:26 | 45.34961 | 20.57170 | 35962 ft | 416 kts | 333° |
| 2026-05-06 14:27 | 45.40321 | 20.54073 | 35960 ft | 416 kts | 333° |
| 2026-05-06 14:27 | 45.45685 | 20.50969 | 35954 ft | 416 kts | 333° |
| 2026-05-06 14:28 | 45.51043 | 20.47856 | 35954 ft | 416 kts | 333° |
| 2026-05-06 14:28 | 45.56367 | 20.44758 | 35955 ft | 416 kts | 333° |
| 2026-05-06 14:29 | 45.61723 | 20.41640 | 35956 ft | 416 kts | 333° |
| 2026-05-06 14:29 | 45.67081 | 20.38513 | 35954 ft | 416 kts | 333° |
| 2026-05-06 14:30 | 45.72435 | 20.35382 | 35952 ft | 416 kts | 333° |
| 2026-05-06 14:30 | 45.77792 | 20.32247 | 35952 ft | 416 kts | 333° |
| 2026-05-06 14:31 | 45.83145 | 20.29108 | 35950 ft | 416 kts | 332° |
| 2026-05-06 14:31 | 45.88497 | 20.25954 | 35948 ft | 416 kts | 332° |
| 2026-05-06 14:32 | 45.93810 | 20.22809 | 35943 ft | 416 kts | 332° |
| 2026-05-06 14:32 | 45.99163 | 20.19643 | 35947 ft | 416 kts | 332° |
| 2026-05-06 14:33 | 46.04518 | 20.16474 | 35945 ft | 416 kts | 332° |
| 2026-05-06 14:33 | 46.09871 | 20.13293 | 35940 ft | 416 kts | 332° |
| 2026-05-06 14:34 | 46.15231 | 20.10136 | 35937 ft | 418 kts | 335° |
| 2026-05-06 14:34 | 46.20977 | 20.08346 | 35939 ft | 426 kts | 345° |
| 2026-05-06 14:35 | 46.26826 | 20.07016 | 35936 ft | 426 kts | 345° |
| 2026-05-06 14:35 | 46.32679 | 20.05665 | 35939 ft | 426 kts | 345° |
| 2026-05-06 14:36 | 46.38484 | 20.04308 | 35941 ft | 426 kts | 345° |
| 2026-05-06 14:36 | 46.44333 | 20.02933 | 35934 ft | 426 kts | 345° |
| 2026-05-06 14:37 | 46.50181 | 20.01574 | 35938 ft | 426 kts | 345° |
| 2026-05-06 14:37 | 46.56037 | 20.00215 | 35934 ft | 426 kts | 345° |
| 2026-05-06 14:38 | 46.61887 | 19.98847 | 35934 ft | 426 kts | 345° |
| 2026-05-06 14:38 | 46.67745 | 19.97469 | 35933 ft | 426 kts | 345° |
| 2026-05-06 14:39 | 46.73600 | 19.96095 | 35933 ft | 426 kts | 345° |
| 2026-05-06 14:39 | 46.79458 | 19.94711 | 35934 ft | 426 kts | 345° |
| 2026-05-06 14:40 | 46.85275 | 19.93335 | 35932 ft | 427 kts | 345° |
| 2026-05-06 14:40 | 46.91137 | 19.91951 | 35934 ft | 427 kts | 345° |
| 2026-05-06 14:41 | 46.97002 | 19.90557 | 35932 ft | 427 kts | 345° |
| 2026-05-06 14:41 | 47.02859 | 19.89156 | 35932 ft | 427 kts | 345° |
| 2026-05-06 14:42 | 47.08729 | 19.87761 | 35929 ft | 427 kts | 345° |
| 2026-05-06 14:42 | 47.14593 | 19.86365 | 35924 ft | 427 kts | 345° |
| 2026-05-06 14:43 | 47.20458 | 19.84954 | 35924 ft | 427 kts | 345° |
| 2026-05-06 14:43 | 47.26279 | 19.83551 | 35923 ft | 427 kts | 345° |
| 2026-05-06 14:44 | 47.32142 | 19.82139 | 35921 ft | 427 kts | 345° |
| 2026-05-06 14:45 | 47.40933 | 19.80022 | 35922 ft | 427 kts | 345° |
| 2026-05-06 14:45 | 47.46795 | 19.78616 | 35922 ft | 427 kts | 345° |
| 2026-05-06 14:46 | 47.52656 | 19.77194 | 35921 ft | 427 kts | 345° |
| 2026-05-06 14:46 | 47.58520 | 19.75763 | 35919 ft | 427 kts | 345° |
| 2026-05-06 14:47 | 47.64382 | 19.74328 | 35917 ft | 427 kts | 345° |
| 2026-05-06 14:47 | 47.70208 | 19.72904 | 35912 ft | 427 kts | 345° |
| 2026-05-06 14:48 | 47.76078 | 19.71461 | 35915 ft | 428 kts | 345° |
| 2026-05-06 14:48 | 47.81951 | 19.70027 | 35917 ft | 428 kts | 345° |
| 2026-05-06 14:49 | 47.87833 | 19.68589 | 35917 ft | 428 kts | 345° |
| 2026-05-06 14:49 | 47.93706 | 19.67140 | 35910 ft | 428 kts | 345° |
| 2026-05-06 14:50 | 47.99604 | 19.65773 | 35907 ft | 432 kts | 352° |
| 2026-05-06 14:50 | 48.05614 | 19.65757 | 35911 ft | 435 kts | 355° |
| 2026-05-06 14:51 | 48.11675 | 19.65805 | 35902 ft | 436 kts | 355° |
| 2026-05-06 14:51 | 48.17746 | 19.65850 | 35901 ft | 436 kts | 355° |
| 2026-05-06 14:52 | 48.23818 | 19.65902 | 35912 ft | 437 kts | 355° |
| 2026-05-06 14:52 | 48.29897 | 19.65951 | 35903 ft | 439 kts | 359° |
| 2026-05-06 14:53 | 48.35915 | 19.67681 | 35901 ft | 445 kts | 7° |
| 2026-05-06 14:53 | 48.41976 | 19.69660 | 35903 ft | 446 kts | 7° |
| 2026-05-06 14:54 | 48.48040 | 19.71641 | 35891 ft | 447 kts | 7° |
| 2026-05-06 14:54 | 48.51088 | 19.72633 | 35372 ft | 449 kts | 7° |
| 2026-05-06 14:54 | 48.54132 | 19.73629 | 34817 ft | 447 kts | 7° |
| 2026-05-06 14:54 | 48.57157 | 19.74625 | 34262 ft | 444 kts | 7° |
| 2026-05-06 14:55 | 48.60172 | 19.75618 | 33663 ft | 443 kts | 7° |
| 2026-05-06 14:55 | 48.63178 | 19.76609 | 33089 ft | 440 kts | 7° |
| 2026-05-06 14:55 | 48.66114 | 19.77577 | 32535 ft | 436 kts | 7° |
| 2026-05-06 14:55 | 48.69066 | 19.78550 | 31977 ft | 433 kts | 8° |
| 2026-05-06 14:56 | 48.72002 | 19.79515 | 31427 ft | 430 kts | 8° |
| 2026-05-06 14:56 | 48.74920 | 19.80475 | 30880 ft | 428 kts | 8° |
| 2026-05-06 14:56 | 48.77823 | 19.81430 | 30340 ft | 426 kts | 8° |
| 2026-05-06 14:56 | 48.80707 | 19.82379 | 29776 ft | 424 kts | 9° |
| 2026-05-06 14:57 | 48.83570 | 19.83326 | 29227 ft | 418 kts | 9° |
| 2026-05-06 14:57 | 48.86399 | 19.84269 | 28708 ft | 413 kts | 9° |
| 2026-05-06 14:57 | 48.89190 | 19.85198 | 28184 ft | 408 kts | 9° |
| 2026-05-06 14:57 | 48.91910 | 19.86103 | 27689 ft | 403 kts | 9° |
| 2026-05-06 14:58 | 48.94632 | 19.87007 | 27197 ft | 398 kts | 9° |
| 2026-05-06 14:58 | 48.97322 | 19.87903 | 26717 ft | 394 kts | 9° |
| 2026-05-06 14:58 | 48.99988 | 19.88790 | 26243 ft | 391 kts | 9° |
| 2026-05-06 14:58 | 49.02633 | 19.89670 | 25794 ft | 388 kts | 9° |
| 2026-05-06 14:59 | 49.05264 | 19.90546 | 25343 ft | 386 kts | 10° |
| 2026-05-06 14:59 | 49.07875 | 19.91417 | 24895 ft | 383 kts | 10° |
| 2026-05-06 14:59 | 49.10476 | 19.92286 | 24460 ft | 381 kts | 10° |
| 2026-05-06 14:59 | 49.13058 | 19.93151 | 24021 ft | 379 kts | 10° |
| 2026-05-06 15:00 | 49.15630 | 19.94014 | 23457 ft | 380 kts | 10° |
| 2026-05-06 15:00 | 49.18255 | 19.94893 | 22596 ft | 387 kts | 10° |
| 2026-05-06 15:00 | 49.20829 | 19.95758 | 22167 ft | 381 kts | 10° |
| 2026-05-06 15:00 | 49.23404 | 19.96626 | 21702 ft | 377 kts | 11° |
| 2026-05-06 15:01 | 49.25948 | 19.97490 | 21244 ft | 372 kts | 11° |
| 2026-05-06 15:01 | 49.28467 | 19.98346 | 20780 ft | 369 kts | 11° |
| 2026-05-06 15:01 | 49.30969 | 19.99193 | 20310 ft | 366 kts | 11° |
| 2026-05-06 15:01 | 49.33451 | 20.00028 | 19852 ft | 364 kts | 11° |
| 2026-05-06 15:02 | 49.35915 | 20.00859 | 19395 ft | 362 kts | 10° |
| 2026-05-06 15:02 | 49.38369 | 20.01688 | 18933 ft | 360 kts | 10° |
| 2026-05-06 15:02 | 49.40815 | 20.02517 | 18478 ft | 359 kts | 10° |
| 2026-05-06 15:02 | 49.43251 | 20.03338 | 18009 ft | 358 kts | 10° |
| 2026-05-06 15:03 | 49.45674 | 20.04158 | 17534 ft | 355 kts | 10° |
| 2026-05-06 15:03 | 49.48037 | 20.04961 | 17104 ft | 351 kts | 10° |
| 2026-05-06 15:03 | 49.50410 | 20.05771 | 16678 ft | 347 kts | 10° |
| 2026-05-06 15:03 | 49.52758 | 20.06574 | 16241 ft | 344 kts | 10° |
| 2026-05-06 15:04 | 49.55087 | 20.07371 | 15819 ft | 341 kts | 10° |
| 2026-05-06 15:04 | 49.57393 | 20.08161 | 15400 ft | 338 kts | 10° |
| 2026-05-06 15:04 | 49.59682 | 20.08943 | 14986 ft | 335 kts | 10° |
| 2026-05-06 15:04 | 49.61183 | 20.09455 | 14712 ft | 333 kts | 10° |
| 2026-05-06 15:05 | 49.63437 | 20.10225 | 14303 ft | 331 kts | 10° |
| 2026-05-06 15:05 | 49.65674 | 20.10988 | 13890 ft | 328 kts | 10° |
| 2026-05-06 15:05 | 49.67894 | 20.11746 | 13447 ft | 326 kts | 10° |
| 2026-05-06 15:05 | 49.70812 | 20.12748 | 12896 ft | 322 kts | 10° |
| 2026-05-06 15:06 | 49.72285 | 20.13257 | 12617 ft | 320 kts | 10° |
| 2026-05-06 15:06 | 49.74445 | 20.14003 | 12216 ft | 317 kts | 11° |
| 2026-05-06 15:06 | 49.76590 | 20.14742 | 11806 ft | 314 kts | 11° |
| 2026-05-06 15:06 | 49.78712 | 20.15473 | 11399 ft | 312 kts | 11° |
| 2026-05-06 15:07 | 49.80825 | 20.16201 | 10993 ft | 310 kts | 11° |
| 2026-05-06 15:07 | 49.82896 | 20.16916 | 10582 ft | 308 kts | 11° |
| 2026-05-06 15:07 | 49.84986 | 20.17637 | 10169 ft | 307 kts | 11° |
| 2026-05-06 15:07 | 49.87055 | 20.18353 | 10028 ft | 305 kts | 11° |
| 2026-05-06 15:08 | 49.89128 | 20.19068 | 9902 ft | 305 kts | 11° |
| 2026-05-06 15:08 | 49.91207 | 20.19784 | 9696 ft | 307 kts | 11° |
| 2026-05-06 15:08 | 49.93315 | 20.20512 | 9158 ft | 309 kts | 11° |
| 2026-05-06 15:08 | 49.95389 | 20.21233 | 8759 ft | 305 kts | 11° |
| 2026-05-06 15:09 | 49.97461 | 20.21953 | 8322 ft | 303 kts | 11° |
| 2026-05-06 15:09 | 49.99504 | 20.22669 | 7822 ft | 298 kts | 11° |
| 2026-05-06 15:09 | 50.01478 | 20.23360 | 7514 ft | 282 kts | 11° |
| 2026-05-06 15:09 | 50.03347 | 20.24012 | 7386 ft | 270 kts | 11° |
| 2026-05-06 15:10 | 50.05171 | 20.24384 | 7177 ft | 260 kts | 356° |
| 2026-05-06 15:10 | 50.06943 | 20.24022 | 6838 ft | 256 kts | 345° |
| 2026-05-06 15:10 | 50.08687 | 20.23436 | 6476 ft | 256 kts | 345° |
| 2026-05-06 15:10 | 50.10428 | 20.22860 | 6114 ft | 256 kts | 344° |
| 2026-05-06 15:11 | 50.12014 | 20.21752 | 5746 ft | 248 kts | 315° |
| 2026-05-06 15:11 | 50.12964 | 20.19615 | 5380 ft | 238 kts | 284° |
| 2026-05-06 15:11 | 50.13087 | 20.17138 | 5078 ft | 232 kts | 258° |
| 2026-05-06 15:11 | 50.12759 | 20.14694 | 4759 ft | 230 kts | 256° |
| 2026-05-06 15:12 | 50.12424 | 20.12260 | 4433 ft | 228 kts | 257° |
| 2026-05-06 15:12 | 50.12091 | 20.09841 | 4107 ft | 228 kts | 256° |
| 2026-05-06 15:12 | 50.11759 | 20.07439 | 3854 ft | 224 kts | 257° |
| 2026-05-06 15:12 | 50.11438 | 20.05116 | 3691 ft | 214 kts | 257° |
| 2026-05-06 15:13 | 50.11132 | 20.02890 | 3493 ft | 206 kts | 256° |
| 2026-05-06 15:13 | 50.10843 | 20.00770 | 3331 ft | 194 kts | 257° |
| 2026-05-06 15:13 | 50.10576 | 19.98798 | 3147 ft | 177 kts | 256° |
| 2026-05-06 15:13 | 50.10338 | 19.97029 | 3020 ft | 160 kts | 256° |
| 2026-05-06 15:14 | 50.10116 | 19.95389 | 2785 ft | 149 kts | 256° |
| 2026-05-06 15:14 | 50.09907 | 19.93858 | 2578 ft | 141 kts | 255° |
| 2026-05-06 15:14 | 50.09706 | 19.92394 | 2395 ft | 139 kts | 256° |
| 2026-05-06 15:14 | 50.09502 | 19.90937 | 2215 ft | 135 kts | 256° |
| 2026-05-06 15:15 | 50.09306 | 19.89525 | 2049 ft | 135 kts | 254° |
| 2026-05-06 15:15 | 50.09108 | 19.88097 | 1871 ft | 136 kts | 253° |
| 2026-05-06 15:15 | 50.08908 | 19.86652 | 1670 ft | 137 kts | 253° |
| 2026-05-06 15:15 | 50.08708 | 19.85201 | 1484 ft | 139 kts | 255° |
| 2026-05-06 15:16 | 50.08516 | 19.83739 | 1320 ft | 136 kts | 257° |
| 2026-05-06 15:16 | 50.08287 | 19.82302 | 1129 ft | 140 kts | 254° |
| 2026-05-06 15:16 | 50.08107 | 19.80824 | 939 ft | 137 kts | 259° |
| 2026-05-06 15:16 | 50.07899 | 19.79406 | 802 ft | 133 kts | 258° |
| 2026-05-06 15:17 | 50.07736 | 19.78207 | 788 ft | 84 kts | 258° |
| 2026-05-06 15:17 | 50.07649 | 19.77573 | 789 ft | 48 kts | 258° |
| 2026-05-06 15:17 | 50.07583 | 19.77101 | 794 ft | 41 kts | 258° |
| 2026-05-06 15:17 | 50.07530 | 19.76866 | 795 ft | 13 kts | 216° |
| 2026-05-06 15:18 | 50.07447 | 19.76848 | 792 ft | 14 kts | 165° |
| 2026-05-06 15:18 | 50.07355 | 19.76891 | 789 ft | 13 kts | 167° |
| 2026-05-06 15:18 | 50.07310 | 19.76975 | 789 ft | 10 kts | 82° |
| 2026-05-06 15:18 | 50.07320 | 19.77079 | 789 ft | 9 kts | 76° |
| 2026-05-06 15:19 | 50.07333 | 19.77174 | 789 ft | 9 kts | 78° |
| 2026-05-06 15:19 | 50.07346 | 19.77261 | 789 ft | 8 kts | 77° |
| 2026-05-06 15:19 | 50.07358 | 19.77343 | 789 ft | 8 kts | 77° |
| 2026-05-06 15:19 | 50.07370 | 19.77420 | 789 ft | 7 kts | 76° |
| 2026-05-06 15:20 | 50.07389 | 19.77545 | 789 ft | 17 kts | 77° |
| 2026-05-06 15:20 | 50.07412 | 19.77717 | 789 ft | 16 kts | 78° |
| 2026-05-06 15:20 | 50.07440 | 19.77921 | 789 ft | 21 kts | 78° |
| 2026-05-06 15:20 | 50.07471 | 19.78143 | 789 ft | 22 kts | 77° |
| 2026-05-06 15:21 | 50.07505 | 19.78373 | 789 ft | 22 kts | 78° |
| 2026-05-06 15:21 | 50.07542 | 19.78638 | 789 ft | 26 kts | 77° |
| 2026-05-06 15:21 | 50.07579 | 19.78912 | 789 ft | 26 kts | 78° |
| 2026-05-06 15:21 | 50.07617 | 19.79175 | 789 ft | 25 kts | 78° |
| 2026-05-06 15:22 | 50.07652 | 19.79436 | 789 ft | 24 kts | 78° |
| 2026-05-06 15:22 | 50.07684 | 19.79664 | 789 ft | 19 kts | 78° |
| 2026-05-06 15:22 | 50.07704 | 19.79833 | 789 ft | 12 kts | 101° |
| 2026-05-06 15:22 | 50.07629 | 19.79893 | 789 ft | 17 kts | 167° |
| 2026-05-06 15:23 | 50.07513 | 19.79932 | 789 ft | 17 kts | 168° |
| 2026-05-06 15:23 | 50.07417 | 19.79970 | 789 ft | 11 kts | 148° |
| 2026-05-06 15:23 | 50.07407 | 19.80070 | 789 ft | 9 kts | 79° |
| 2026-05-06 15:23 | 50.07414 | 19.80124 | 789 ft | 0 kts | 78° |
| 2026-05-06 15:24 | 50.07409 | 19.80157 | 789 ft | 6 kts | 137° |
| 2026-05-06 15:24 | 50.07370 | 19.80181 | 789 ft | 6 kts | 165° |
| 2026-05-06 15:24 | 50.07346 | 19.80190 | 789 ft | 1 kts | 167° |